Luxora, Arkansas
Current Conditions -  °F | °C
As of 2:42 AM on Saturday 29 Nov 2014 (Local Time) from KHKA Reporting Station
Scattered Clouds Scattered Clouds  
Wind Chill: 42°   Ceiling: Unl
Heat Index: 49°   Visibility: 10mi
Dew Point: 39°   Wind: 18mph
Humidity: 69%   Direction: 210°SSW
Pressure: 30.01"   Gusts: 25mph
Location:  35.76°N, 89.93°W
Report Text: KHKA 290842Z AUTO 21016G22KT 10SM SCT028 09/04 A3001 RMK AO2 T00940039
Loading
Personal Weather Stations






























Interactive Weather Map New forecast layout! Learn more

10-Day Weather Forecast

Advertisements
Track Severe Weather on mobile